createdAt,value
2024-03-09T00:00:57.272Z,27.27
2024-03-09T00:03:32.259Z,26.85
2024-03-09T00:06:02.217Z,25.80
2024-03-09T00:08:29.832Z,25.33
2024-03-09T00:10:59.572Z,25.48
2024-03-09T00:13:30.407Z,25.37
2024-03-09T00:16:00.827Z,26.38
2024-03-09T00:18:36.700Z,18.63
2024-03-09T00:23:38.486Z,25.77
2024-03-09T00:26:09.119Z,25.88
2024-03-09T00:31:08.056Z,24.33
2024-03-09T00:33:36.823Z,26.40
2024-03-09T00:36:05.165Z,25.88
2024-03-09T00:38:35.485Z,24.98
2024-03-09T00:41:03.473Z,24.40
2024-03-09T00:43:32.631Z,27.25
2024-03-09T00:46:00.261Z,23.83
2024-03-09T00:48:28.605Z,26.10
2024-03-09T00:50:56.497Z,27.75
2024-03-09T00:53:24.148Z,27.05
2024-03-09T00:55:53.594Z,27.15
2024-03-09T00:58:23.407Z,25.15
2024-03-09T01:00:53.174Z,25.13
2024-03-09T01:03:46.788Z,19.57
2024-03-09T01:06:16.598Z,25.90
2024-03-09T01:09:09.335Z,24.85
2024-03-09T01:11:37.540Z,28.02
2024-03-09T01:14:05.436Z,26.23
2024-03-09T01:16:34.495Z,28.25
2024-03-09T01:19:02.302Z,28.75
2024-03-09T01:21:30.868Z,26.45
2024-03-09T01:24:25.356Z,29.45
2024-03-09T01:26:54.043Z,25.77
2024-03-09T01:29:23.566Z,26.02
2024-03-09T01:31:53.921Z,28.98
2024-03-09T01:36:49.943Z,26.42
2024-03-09T01:39:18.539Z,29.00
2024-03-09T01:41:46.660Z,26.73
2024-03-09T01:44:16.027Z,28.25
2024-03-09T01:47:11.080Z,26.02
2024-03-09T01:49:39.083Z,28.38
2024-03-09T01:52:09.008Z,31.23
2024-03-09T01:54:41.206Z,27.65
2024-03-09T01:57:15.069Z,29.88
2024-03-09T01:59:48.677Z,28.60
2024-03-09T02:02:18.312Z,25.27
2024-03-09T02:04:47.878Z,27.67
2024-03-09T02:07:17.990Z,27.27
2024-03-09T02:09:48.047Z,28.92
2024-03-09T02:12:19.122Z,26.52
2024-03-09T02:14:48.117Z,27.20
2024-03-09T02:17:18.133Z,27.83
2024-03-09T02:19:46.284Z,26.08
2024-03-09T02:22:19.458Z,28.55
2024-03-09T02:24:55.980Z,27.23
2024-03-09T02:27:27.817Z,26.80
2024-03-09T02:29:55.506Z,27.88
2024-03-09T02:32:23.626Z,29.35
2024-03-09T02:38:10.308Z,29.02
2024-03-09T02:40:39.730Z,28.70
2024-03-09T02:43:09.353Z,31.42
2024-03-09T02:45:44.043Z,28.73
2024-03-09T02:48:13.784Z,29.42
2024-03-09T02:50:41.731Z,32.17
2024-03-09T02:53:09.413Z,27.60
2024-03-09T02:55:38.644Z,27.50
2024-03-09T02:58:07.718Z,30.80
2024-03-09T03:00:38.684Z,32.25
2024-03-09T03:03:24.621Z,29.48
2024-03-09T03:05:54.184Z,31.25
2024-03-09T03:08:22.308Z,29.08
2024-03-09T03:10:50.240Z,32.28
2024-03-09T03:13:20.108Z,33.40
2024-03-09T03:15:48.564Z,31.70
2024-03-09T03:18:16.256Z,28.65
2024-03-09T03:20:44.204Z,29.73
2024-03-09T03:23:12.306Z,27.65
2024-03-09T03:25:41.033Z,28.63
2024-03-09T03:28:09.326Z,27.67
2024-03-09T03:31:02.857Z,27.95
2024-03-09T03:33:32.283Z,28.50
2024-03-09T03:36:02.976Z,28.80
2024-03-09T03:41:07.933Z,31.98
2024-03-09T03:43:36.158Z,30.02
2024-03-09T03:46:06.878Z,32.35
2024-03-09T03:48:35.127Z,30.88
2024-03-09T03:51:02.761Z,31.23
2024-03-09T03:53:30.466Z,28.48
2024-03-09T03:56:00.299Z,28.35
2024-03-09T03:58:29.310Z,31.15
2024-03-09T04:00:57.522Z,28.83
2024-03-09T04:03:30.466Z,29.70
2024-03-09T04:06:00.124Z,27.08
2024-03-09T04:08:28.522Z,29.80
2024-03-09T04:10:56.826Z,24.73
2024-03-09T04:13:26.059Z,29.60
2024-03-09T04:15:57.451Z,30.90
2024-03-09T04:18:31.847Z,27.98
2024-03-09T04:21:03.304Z,30.42
2024-03-09T04:23:31.422Z,30.10
2024-03-09T04:25:59.589Z,29.13
2024-03-09T04:28:32.520Z,30.20
2024-03-09T04:31:01.125Z,31.02
2024-03-09T04:33:31.836Z,30.50
2024-03-09T04:36:00.399Z,29.45
2024-03-09T04:38:28.265Z,30.42
2024-03-09T04:40:56.061Z,32.38
2024-03-09T04:43:24.868Z,28.02
2024-03-09T04:45:57.085Z,30.75
2024-03-09T04:48:26.044Z,31.73
2024-03-09T04:50:56.477Z,29.10
2024-03-09T04:56:18.333Z,29.08
2024-03-09T04:58:46.026Z,33.30
2024-03-09T05:01:14.472Z,29.05
2024-03-09T05:03:42.692Z,31.75
2024-03-09T05:06:14.148Z,31.80
2024-03-09T05:08:45.030Z,28.88
2024-03-09T05:11:13.942Z,29.50
2024-03-09T05:13:42.088Z,29.98
2024-03-09T05:16:12.244Z,27.65
2024-03-09T05:19:12.641Z,29.58
2024-03-09T05:21:45.299Z,28.95
2024-03-09T05:24:13.070Z,30.35
2024-03-09T05:26:43.691Z,29.65
2024-03-09T05:29:13.863Z,29.45
2024-03-09T05:31:42.171Z,27.97
2024-03-09T05:34:12.297Z,29.90
2024-03-09T05:36:41.504Z,29.23
2024-03-09T05:39:12.150Z,26.02
2024-03-09T05:44:09.481Z,26.90
2024-03-09T05:46:38.620Z,29.25
2024-03-09T05:49:07.048Z,29.70
2024-03-09T05:51:35.214Z,28.55
2024-03-09T05:54:05.860Z,28.10
2024-03-09T05:56:33.985Z,31.27
2024-03-09T05:59:01.794Z,30.30
2024-03-09T06:01:29.633Z,31.83
2024-03-09T06:04:00.504Z,26.55
2024-03-09T06:06:28.178Z,29.58
2024-03-09T06:08:59.690Z,29.90
2024-03-09T06:11:29.036Z,29.90
2024-03-09T06:13:57.612Z,28.05
2024-03-09T06:16:25.581Z,27.75
2024-03-09T06:18:54.069Z,26.60
2024-03-09T06:21:23.343Z,28.20
2024-03-09T06:24:16.986Z,26.52
2024-03-09T06:26:46.131Z,27.70
2024-03-09T06:29:14.244Z,27.92
2024-03-09T06:31:44.750Z,25.38
2024-03-09T06:34:12.498Z,26.42
2024-03-09T06:36:40.794Z,28.15
2024-03-09T06:39:08.758Z,27.23
2024-03-09T06:41:37.464Z,28.10
2024-03-09T06:44:10.046Z,29.33
2024-03-09T06:47:02.038Z,24.58
2024-03-09T06:49:31.324Z,27.67
2024-03-09T06:51:59.648Z,25.67
2024-03-09T06:54:30.651Z,26.58
2024-03-09T06:56:58.655Z,25.15
2024-03-09T06:59:27.734Z,26.95
2024-03-09T07:01:58.774Z,27.05
2024-03-09T07:04:27.053Z,26.27
2024-03-09T07:06:54.988Z,23.88
2024-03-09T07:09:23.769Z,26.08
2024-03-09T07:11:54.367Z,24.70
2024-03-09T07:14:22.664Z,25.50
2024-03-09T07:16:52.796Z,26.13
2024-03-09T07:19:21.944Z,25.53
2024-03-09T07:21:49.972Z,26.00
2024-03-09T07:24:44.155Z,24.27
2024-03-09T07:27:13.314Z,25.90
2024-03-09T07:29:42.690Z,24.80
2024-03-09T07:32:13.907Z,24.92
2024-03-09T07:34:41.907Z,23.52
2024-03-09T07:37:09.749Z,23.38
2024-03-09T07:39:39.208Z,24.77
2024-03-09T07:42:37.138Z,27.08
2024-03-09T07:45:08.117Z,28.40
2024-03-09T07:47:37.491Z,25.13
2024-03-09T07:50:05.394Z,27.65
2024-03-09T07:52:34.115Z,26.80
2024-03-09T07:55:01.753Z,27.05
2024-03-09T07:57:29.594Z,24.98
2024-03-09T07:59:57.435Z,22.73
2024-03-09T08:02:26.252Z,25.35
2024-03-09T08:04:55.562Z,25.92
2024-03-09T08:07:23.678Z,25.73
2024-03-09T08:09:51.813Z,21.80
2024-03-09T08:12:19.807Z,25.40
2024-03-09T08:14:50.042Z,23.60
2024-03-09T08:17:18.192Z,25.27
2024-03-09T08:19:46.645Z,22.25
2024-03-09T08:22:16.033Z,22.55
2024-03-09T08:24:43.698Z,21.10
2024-03-09T08:27:11.354Z,23.52
2024-03-09T08:29:39.238Z,22.27
2024-03-09T08:32:07.956Z,21.38
2024-03-09T08:34:36.061Z,23.05
2024-03-09T08:37:10.000Z,24.25
2024-03-09T08:39:43.420Z,20.65
2024-03-09T08:42:12.907Z,21.25
2024-03-09T08:44:41.074Z,20.90
2024-03-09T08:47:09.383Z,20.58
2024-03-09T08:49:37.533Z,23.13
2024-03-09T08:52:06.145Z,23.10
2024-03-09T08:54:34.724Z,23.40
2024-03-09T08:57:04.356Z,22.00
2024-03-09T08:59:34.093Z,23.30
2024-03-09T09:02:03.080Z,23.87
2024-03-09T09:04:30.760Z,23.25
2024-03-09T09:06:58.641Z,24.20
2024-03-09T09:09:26.777Z,22.55
2024-03-09T09:11:55.742Z,20.55
2024-03-09T09:14:25.497Z,21.70
2024-03-09T09:16:54.673Z,24.87
2024-03-09T09:19:26.039Z,23.95
2024-03-09T09:21:56.485Z,21.83
2024-03-09T09:24:25.552Z,23.67
2024-03-09T09:26:54.338Z,21.33
2024-03-09T09:29:22.305Z,20.55
2024-03-09T09:31:51.422Z,22.15
2024-03-09T09:34:19.239Z,19.42
2024-03-09T09:36:49.017Z,23.25
2024-03-09T09:39:22.609Z,22.90
2024-03-09T09:41:52.075Z,23.20
2024-03-09T09:44:21.574Z,21.48
2024-03-09T09:46:49.217Z,21.10
2024-03-09T09:49:19.365Z,20.60
2024-03-09T09:51:49.514Z,19.73
2024-03-09T09:54:17.928Z,21.23
2024-03-09T09:56:47.601Z,23.20
2024-03-09T09:59:18.475Z,21.48
2024-03-09T10:01:47.865Z,21.88
2024-03-09T10:04:17.354Z,21.83
2024-03-09T10:06:49.027Z,19.70
2024-03-09T10:09:28.813Z,21.80
2024-03-09T10:11:58.068Z,22.50
2024-03-09T10:14:30.067Z,22.85
2024-03-09T10:17:02.591Z,20.20
2024-03-09T10:19:31.865Z,20.75
2024-03-09T10:22:02.445Z,23.08
2024-03-09T10:27:07.862Z,20.95
2024-03-09T10:29:35.811Z,21.58
2024-03-09T10:32:09.196Z,21.05
2024-03-09T10:34:49.372Z,21.08
2024-03-09T10:37:25.141Z,22.90
2024-03-09T10:39:53.152Z,19.35
2024-03-09T10:42:22.403Z,20.20
2024-03-09T10:44:54.416Z,21.23
2024-03-09T10:47:26.598Z,21.80
2024-03-09T10:50:02.508Z,21.13
2024-03-09T10:52:33.939Z,22.42
2024-03-09T10:55:08.087Z,20.65
2024-03-09T10:57:36.607Z,19.30
2024-03-09T11:00:05.202Z,21.20
2024-03-09T11:02:36.620Z,20.20
2024-03-09T11:05:06.670Z,17.85
2024-03-09T11:07:37.353Z,20.08
2024-03-09T11:12:37.727Z,20.15
2024-03-09T11:15:09.623Z,21.95
2024-03-09T11:17:37.482Z,20.13
2024-03-09T11:20:08.654Z,20.42
2024-03-09T11:22:47.756Z,22.95
2024-03-09T11:25:16.330Z,20.15
2024-03-09T11:27:44.824Z,19.88
2024-03-09T11:30:16.418Z,19.33
2024-03-09T11:32:44.661Z,23.50
2024-03-09T11:35:33.514Z,21.33
2024-03-09T11:38:13.345Z,21.45
2024-03-09T11:40:41.989Z,22.52
2024-03-09T11:43:13.118Z,22.10
2024-03-09T11:45:41.644Z,21.42
2024-03-09T11:48:10.321Z,21.52
2024-03-09T11:50:43.740Z,19.73
2024-03-09T11:53:13.129Z,20.45
2024-03-09T11:55:42.943Z,17.98
2024-03-09T11:58:11.460Z,19.90
2024-03-09T12:00:39.059Z,19.90
2024-03-09T12:03:15.525Z,19.92
2024-03-09T12:05:45.419Z,18.27
2024-03-09T12:08:15.254Z,19.60
2024-03-09T12:10:47.370Z,18.73
2024-03-09T12:13:15.212Z,19.20
2024-03-09T12:15:44.886Z,18.95
2024-03-09T12:18:14.635Z,19.05
2024-03-09T12:20:48.682Z,19.27
2024-03-09T12:23:20.820Z,19.38
2024-03-09T12:25:48.816Z,19.88
2024-03-09T12:28:17.985Z,17.75
2024-03-09T12:30:52.052Z,19.67
2024-03-09T12:33:20.382Z,20.23
2024-03-09T12:35:48.688Z,17.65
2024-03-09T12:38:21.680Z,20.73
2024-03-09T12:40:53.067Z,21.77
2024-03-09T12:43:21.826Z,17.95
2024-03-09T12:45:53.357Z,16.45
2024-03-09T12:48:24.104Z,18.92
2024-03-09T12:50:56.656Z,17.50
2024-03-09T12:53:25.637Z,18.40
2024-03-09T12:55:55.007Z,16.80
2024-03-09T12:58:22.690Z,19.63
2024-03-09T13:00:55.300Z,17.02
2024-03-09T13:03:25.730Z,16.88
2024-03-09T13:05:53.690Z,17.17
2024-03-09T13:08:25.231Z,17.42
2024-03-09T13:10:54.415Z,17.75
2024-03-09T13:13:23.160Z,17.45
2024-03-09T13:15:56.349Z,17.83
2024-03-09T13:18:25.174Z,14.90
2024-03-09T13:20:55.317Z,20.83
2024-03-09T13:23:23.387Z,18.65
2024-03-09T13:25:51.144Z,19.70
2024-03-09T13:28:20.174Z,18.48
2024-03-09T13:30:49.877Z,21.40
2024-03-09T13:33:17.750Z,16.73
2024-03-09T13:35:46.134Z,16.67
2024-03-09T13:38:13.920Z,16.75
2024-03-09T13:40:42.079Z,18.23
2024-03-09T13:43:09.714Z,15.98
2024-03-09T13:45:42.023Z,16.33
2024-03-09T13:48:12.310Z,16.25
2024-03-09T13:50:40.023Z,17.33
2024-03-09T13:53:07.338Z,17.25
2024-03-09T13:55:35.989Z,17.17
2024-03-09T13:58:05.601Z,16.30
2024-03-09T14:00:37.208Z,14.32
2024-03-09T14:03:08.386Z,15.48
2024-03-09T14:05:37.775Z,16.90
2024-03-09T14:08:09.440Z,15.52
2024-03-09T14:10:39.330Z,17.33
2024-03-09T14:13:09.674Z,15.75
2024-03-09T14:15:38.947Z,15.95
2024-03-09T14:18:15.277Z,17.38
2024-03-09T14:20:43.470Z,18.70
2024-03-09T14:23:14.678Z,15.88
2024-03-09T14:25:43.825Z,19.38
2024-03-09T14:28:12.705Z,17.05
2024-03-09T14:30:42.511Z,16.35
2024-03-09T14:33:14.226Z,17.03
2024-03-09T14:35:42.502Z,15.48
2024-03-09T14:38:12.457Z,17.70
2024-03-09T14:40:40.358Z,15.98
2024-03-09T14:43:10.470Z,15.10
2024-03-09T14:45:39.178Z,15.70
2024-03-09T14:48:10.446Z,15.32
2024-03-09T14:50:40.274Z,15.23
2024-03-09T14:53:15.109Z,15.23
2024-03-09T14:55:47.516Z,17.48
2024-03-09T14:58:17.788Z,18.58
2024-03-09T15:00:58.470Z,17.55
2024-03-09T15:03:33.664Z,16.38
2024-03-09T15:06:03.338Z,18.08
2024-03-09T15:08:32.811Z,15.30
2024-03-09T15:11:11.063Z,17.10
2024-03-09T15:13:40.596Z,17.85
2024-03-09T15:16:10.236Z,16.08
2024-03-09T15:18:39.132Z,15.18
2024-03-09T15:21:16.951Z,15.93
2024-03-09T15:23:45.133Z,17.48
2024-03-09T15:26:12.869Z,17.83
2024-03-09T15:28:41.895Z,18.27
2024-03-09T15:31:11.492Z,15.77
2024-03-09T15:33:39.589Z,14.95
2024-03-09T15:36:12.414Z,16.77
2024-03-09T15:38:42.674Z,16.20
2024-03-09T15:41:15.563Z,16.23
2024-03-09T15:43:43.670Z,18.05
2024-03-09T15:46:13.417Z,16.55
2024-03-09T15:48:41.580Z,18.05
2024-03-09T15:51:12.611Z,18.35
2024-03-09T15:53:41.731Z,18.23
2024-03-09T15:56:12.622Z,17.00
2024-03-09T15:58:42.657Z,17.65
2024-03-09T16:01:11.152Z,15.98
2024-03-09T16:03:40.928Z,19.08
2024-03-09T16:06:11.267Z,17.57
2024-03-09T16:08:40.344Z,19.05
2024-03-09T16:11:08.020Z,15.88
2024-03-09T16:13:36.917Z,16.08
2024-03-09T16:16:09.263Z,18.52
2024-03-09T16:18:37.704Z,15.13
2024-03-09T16:21:11.256Z,12.93
2024-03-09T16:23:45.778Z,12.45
2024-03-09T16:26:13.786Z,18.35
2024-03-09T16:28:43.521Z,12.80
2024-03-09T16:31:12.581Z,13.45
2024-03-09T16:33:41.380Z,13.32
2024-03-09T16:36:11.270Z,12.75
2024-03-09T16:38:40.641Z,12.83
2024-03-09T16:41:10.510Z,12.48
2024-03-09T16:43:39.785Z,11.55
2024-03-09T16:46:12.874Z,12.80
2024-03-09T16:48:40.617Z,12.85
2024-03-09T16:51:09.828Z,13.07
2024-03-09T16:53:41.856Z,12.48
2024-03-09T16:56:12.253Z,11.82
2024-03-09T16:58:41.144Z,12.25
2024-03-09T17:01:09.709Z,13.20
2024-03-09T17:03:37.730Z,11.98
2024-03-09T17:06:08.535Z,12.88
2024-03-09T17:08:37.324Z,12.57
2024-03-09T17:11:11.893Z,13.93
2024-03-09T17:13:41.935Z,10.27
2024-03-09T17:16:11.680Z,11.82
2024-03-09T17:18:41.417Z,13.25
2024-03-09T17:21:09.040Z,13.02
2024-03-09T17:23:36.874Z,13.18
2024-03-09T17:26:05.420Z,11.68
2024-03-09T17:28:35.568Z,11.98
2024-03-09T17:31:09.250Z,11.80
2024-03-09T17:33:38.680Z,11.85
2024-03-09T17:36:10.100Z,9.98
2024-03-09T17:38:38.153Z,11.20
2024-03-09T17:41:05.898Z,11.90
2024-03-09T17:43:35.220Z,11.38
2024-03-09T17:46:05.085Z,11.90
2024-03-09T17:48:33.025Z,11.68
2024-03-09T17:51:01.093Z,11.57
2024-03-09T17:53:31.107Z,12.23
2024-03-09T17:56:00.999Z,13.35
2024-03-09T17:58:29.621Z,11.75
2024-03-09T18:00:59.132Z,13.35
2024-03-09T18:03:27.146Z,13.65
2024-03-09T18:05:57.907Z,12.27
2024-03-09T18:08:26.648Z,11.23
2024-03-09T18:10:56.255Z,12.68
2024-03-09T18:13:24.251Z,13.40
2024-03-09T18:15:52.328Z,11.00
2024-03-09T18:18:22.757Z,12.77
2024-03-09T18:20:52.009Z,16.27
2024-03-09T18:23:20.305Z,11.93
2024-03-09T18:25:53.003Z,12.40
2024-03-09T18:28:23.212Z,13.18
2024-03-09T18:30:52.121Z,13.38
2024-03-09T18:33:22.973Z,15.63
2024-03-09T18:35:51.130Z,15.68
2024-03-09T18:38:20.030Z,16.63
2024-03-09T18:40:48.576Z,18.83
2024-03-09T18:43:17.243Z,18.45
2024-03-09T18:45:47.691Z,16.40
2024-03-09T18:48:16.436Z,16.77
2024-03-09T18:50:46.020Z,16.33
2024-03-09T18:53:13.813Z,14.30
2024-03-09T18:55:43.918Z,15.90
2024-03-09T18:58:11.983Z,14.63
2024-03-09T19:00:39.840Z,14.80
2024-03-09T19:03:08.500Z,14.75
2024-03-09T19:05:36.203Z,16.15
2024-03-09T19:08:10.198Z,16.73
2024-03-09T19:10:38.069Z,18.55
2024-03-09T19:13:06.971Z,16.73
2024-03-09T19:15:39.188Z,17.13
2024-03-09T19:18:07.104Z,19.63
2024-03-09T19:20:36.394Z,17.92
2024-03-09T19:23:06.761Z,21.70
2024-03-09T19:25:36.946Z,17.98
2024-03-09T19:28:05.008Z,18.08
2024-03-09T19:30:33.671Z,18.45
2024-03-09T19:33:01.678Z,20.08
2024-03-09T19:35:29.865Z,18.00
2024-03-09T19:37:59.633Z,20.30
2024-03-09T19:40:29.705Z,17.88
2024-03-09T19:43:02.094Z,17.33
2024-03-09T19:45:31.961Z,19.67
2024-03-09T19:48:00.749Z,16.90
2024-03-09T19:50:30.256Z,17.75
2024-03-09T19:52:58.982Z,19.90
2024-03-09T19:55:30.879Z,15.45
2024-03-09T19:58:01.374Z,20.90
2024-03-09T20:00:33.385Z,18.67
2024-03-09T20:03:01.717Z,15.95
2024-03-09T20:05:30.700Z,16.45
2024-03-09T20:07:59.701Z,16.58
2024-03-09T20:10:30.506Z,17.15
2024-03-09T20:15:30.160Z,18.17
2024-03-09T20:17:59.602Z,19.67
2024-03-09T20:20:29.750Z,17.35
2024-03-09T20:22:58.732Z,17.25
2024-03-09T20:25:28.871Z,17.27
2024-03-09T20:27:57.681Z,17.52
2024-03-09T20:30:27.768Z,16.98
2024-03-09T20:32:55.916Z,17.10
2024-03-09T20:35:25.315Z,18.73
2024-03-09T20:37:56.706Z,21.15
2024-03-09T20:43:22.675Z,18.40
2024-03-09T20:45:53.113Z,17.20
2024-03-09T20:48:21.048Z,16.33
2024-03-09T20:50:50.908Z,18.65
2024-03-09T20:53:31.691Z,16.05
2024-03-09T20:58:27.862Z,17.92
2024-03-09T21:00:57.298Z,17.08
2024-03-09T21:03:27.143Z,17.67
2024-03-09T21:05:56.086Z,17.83
2024-03-09T21:08:24.207Z,17.35
2024-03-09T21:10:55.605Z,18.55
2024-03-09T21:13:24.246Z,17.98
2024-03-09T21:15:52.119Z,18.35
2024-03-09T21:18:23.974Z,18.67
2024-03-09T21:20:51.966Z,18.70
2024-03-09T21:23:19.911Z,17.42
2024-03-09T21:26:12.338Z,19.10
2024-03-09T21:28:43.163Z,20.23
2024-03-09T21:31:13.077Z,19.13
2024-03-09T21:33:44.794Z,16.90
2024-03-09T21:36:12.866Z,18.13
2024-03-09T21:38:41.339Z,17.90
2024-03-09T21:41:09.680Z,17.95
2024-03-09T21:43:38.868Z,18.77
2024-03-09T21:46:07.805Z,17.27
2024-03-09T21:48:35.952Z,19.45
2024-03-09T21:51:09.089Z,17.90
2024-03-09T21:53:39.087Z,17.95
2024-03-09T21:56:07.339Z,16.67
2024-03-09T21:58:36.857Z,19.40
2024-03-09T22:01:07.626Z,18.23
2024-03-09T22:03:35.931Z,17.20
2024-03-09T22:06:05.764Z,22.10
2024-03-09T22:08:35.447Z,17.02
2024-03-09T22:11:03.640Z,19.02
2024-03-09T22:13:31.424Z,16.90
2024-03-09T22:16:00.445Z,19.00
2024-03-09T22:18:29.928Z,18.38
2024-03-09T22:20:58.497Z,19.05
2024-03-09T22:23:27.893Z,17.33
2024-03-09T22:25:57.774Z,16.45
2024-03-09T22:28:25.946Z,15.90
2024-03-09T22:30:56.060Z,17.83
2024-03-09T22:33:24.692Z,18.65
2024-03-09T22:35:54.425Z,16.83
2024-03-09T22:38:22.260Z,18.17
2024-03-09T22:40:51.983Z,19.90
2024-03-09T22:43:20.973Z,19.13
2024-03-09T22:45:49.903Z,16.80
2024-03-09T22:48:17.508Z,19.00
2024-03-09T22:50:45.449Z,17.45
2024-03-09T22:53:15.662Z,17.33
2024-03-09T22:55:43.609Z,15.48
2024-03-09T22:58:12.587Z,17.77
2024-03-09T23:00:40.558Z,16.33
2024-03-09T23:03:09.239Z,18.75
2024-03-09T23:05:39.191Z,16.70
2024-03-09T23:08:08.763Z,17.98
2024-03-09T23:10:37.313Z,16.08
2024-03-09T23:13:07.948Z,17.50
2024-03-09T23:18:05.644Z,16.67
2024-03-09T23:20:33.645Z,16.75
2024-03-09T23:23:02.249Z,17.27
2024-03-09T23:25:30.503Z,18.77
2024-03-09T23:27:58.861Z,17.58
2024-03-09T23:30:30.063Z,17.80
2024-03-09T23:33:00.934Z,15.23
2024-03-09T23:35:28.983Z,17.80
2024-03-09T23:37:57.208Z,16.52
2024-03-09T23:40:25.282Z,16.50
2024-03-09T23:42:53.123Z,16.35
2024-03-09T23:45:21.111Z,16.02
2024-03-09T23:47:49.976Z,15.45
2024-03-09T23:50:21.295Z,17.80
2024-03-09T23:52:49.802Z,17.98
2024-03-09T23:55:18.911Z,16.77
2024-03-09T23:57:49.153Z,17.50
